Time;durP1;ratioP1;P1;durP2;ratioP2;P2;SDS_P1;SDS_P2;PMS_P1;PMS_P2;Temp;Humidity;BMP_temperature;BMP_pressure;BME280_temperature;BME280_humidity;BME280_pressure;Samples;Min_cycle;Max_cycle;Signal;HPM_P1;HPM_P2
2021/05/10 00:00:10;;;;;;;2.77;1.10;;;;;;;;;;5098486;28;20244;-65
2021/05/10 00:02:37;;;;;;;3.17;1.00;;;;;;;;;;5094046;28;20290;-65
2021/05/10 00:05:05;;;;;;;4.20;1.13;;;;;;;;;;5091532;28;20685;-65
2021/05/10 00:07:32;;;;;;;1.97;1.10;;;;;;;;;;5097260;28;20284;-65
2021/05/10 00:09:59;;;;;;;1.40;1.00;;;;;;;;;;5097527;28;20292;-65
2021/05/10 00:12:26;;;;;;;2.13;1.00;;;;;;;;;;5096908;28;20232;-65
2021/05/10 00:14:54;;;;;;;3.43;1.00;;;;;;;;;;5097467;28;20264;-65
2021/05/10 00:17:22;;;;;;;2.03;1.10;;;;;;;;;;5094013;28;20280;-66
2021/05/10 00:19:48;;;;;;;2.70;1.20;;;;;;;;;;5097636;28;20293;-65
2021/05/10 00:22:16;;;;;;;1.33;0.90;;;;;;;;;;5090182;28;20287;-65
2021/05/10 00:24:45;;;;;;;2.07;1.00;;;;;;;;;;5090355;28;20312;-65
2021/05/10 00:27:12;;;;;;;3.70;1.23;;;;;;;;;;5096725;28;20288;-65
2021/05/10 00:29:39;;;;;;;2.20;0.87;;;;;;;;;;5097440;28;20289;-65
2021/05/10 00:32:07;;;;;;;4.83;1.10;;;;;;;;;;5085726;28;20285;-66
2021/05/10 00:34:34;;;;;;;3.47;1.07;;;;;;;;;;5091757;28;20209;-65
2021/05/10 00:37:01;;;;;;;2.83;0.87;;;;;;;;;;5087586;28;20206;-65
2021/05/10 00:39:28;;;;;;;2.13;0.80;;;;;;;;;;5101173;28;20277;-65
2021/05/10 00:41:56;;;;;;;1.17;0.90;;;;;;;;;;5100959;28;20237;-66
2021/05/10 00:44:23;;;;;;;2.67;1.13;;;;;;;;;;5087717;28;20231;-65
2021/05/10 00:46:52;;;;;;;2.37;1.10;;;;;;;;;;5101390;28;20237;-65
2021/05/10 00:49:20;;;;;;;1.37;1.03;;;;;;;;;;5099935;28;20212;-65
2021/05/10 00:51:47;;;;;;;1.87;1.03;;;;;;;;;;5099913;28;20288;-65
2021/05/10 00:54:14;;;;;;;2.13;0.93;;;;;;;;;;5101189;28;20289;-65
2021/05/10 00:56:41;;;;;;;1.60;1.00;;;;;;;;;;5100243;28;20213;-65
2021/05/10 00:59:08;;;;;;;1.37;0.83;;;;;;;;;;5101201;28;20215;-65
2021/05/10 01:01:35;;;;;;;4.93;1.20;;;;;;;;;;5095457;28;20285;-65
2021/05/10 01:04:03;;;;;;;2.30;0.97;;;;;;;;;;5087622;28;20208;-65
2021/05/10 01:06:31;;;;;;;3.40;1.20;;;;;;;;;;5100818;28;20221;-65
2021/05/10 01:08:58;;;;;;;3.47;0.90;;;;;;;;;;5086245;28;20293;-65
2021/05/10 01:11:25;;;;;;;3.83;1.00;;;;;;;;;;5099169;28;20623;-65
2021/05/10 01:13:52;;;;;;;1.50;1.20;;;;;;;;;;5100646;28;20276;-65
2021/05/10 01:16:19;;;;;;;1.07;0.87;;;;;;;;;;5100987;28;20222;-65
2021/05/10 01:18:47;;;;;;;1.93;1.30;;;;;;;;;;5090763;28;20202;-65
2021/05/10 01:21:14;;;;;;;5.80;0.90;;;;;;;;;;5094863;28;20205;-65
2021/05/10 01:23:42;;;;;;;2.87;0.90;;;;;;;;;;5100816;28;20210;-65
2021/05/10 01:26:09;;;;;;;3.23;1.10;;;;;;;;;;5099559;28;20225;-65
2021/05/10 01:28:36;;;;;;;0.97;0.97;;;;;;;;;;5087293;28;20645;-65
2021/05/10 01:31:03;;;;;;;1.93;1.30;;;;;;;;;;5099537;28;20284;-65
2021/05/10 01:33:30;;;;;;;1.90;0.93;;;;;;;;;;5085375;28;20218;-65
2021/05/10 01:35:57;;;;;;;4.40;1.00;;;;;;;;;;5098891;28;20218;-65
2021/05/10 01:38:24;;;;;;;2.87;1.03;;;;;;;;;;5086087;28;20739;-65
2021/05/10 01:40:52;;;;;;;5.83;1.07;;;;;;;;;;5098959;28;20308;-65
2021/05/10 01:43:20;;;;;;;0.77;0.70;;;;;;;;;;5092089;28;20202;-65
2021/05/10 01:45:47;;;;;;;3.40;1.00;;;;;;;;;;5095989;28;20293;-65
2021/05/10 01:48:15;;;;;;;3.33;1.07;;;;;;;;;;5099454;28;20541;-65
2021/05/10 01:50:43;;;;;;;2.20;1.20;;;;;;;;;;5099676;28;20244;-65
2021/05/10 01:53:10;;;;;;;5.73;2.23;;;;;;;;;;5098951;28;20229;-65
2021/05/10 01:55:37;;;;;;;6.90;1.23;;;;;;;;;;5100087;28;20313;-65
2021/05/10 01:58:06;;;;;;;4.53;1.07;;;;;;;;;;5098731;28;20637;-64
2021/05/10 02:00:33;;;;;;;3.50;2.20;;;;;;;;;;5100080;28;20241;-65
2021/05/10 02:03:00;;;;;;;2.20;1.20;;;;;;;;;;5084696;28;20292;-65
2021/05/10 02:05:28;;;;;;;1.10;0.87;;;;;;;;;;5094629;28;20658;-65
2021/05/10 02:07:55;;;;;;;5.13;1.00;;;;;;;;;;5098867;28;20275;-65
2021/05/10 02:10:23;;;;;;;4.00;0.83;;;;;;;;;;5099431;28;20238;-65
2021/05/10 02:12:54;;;;;;;1.50;0.87;;;;;;;;;;5085886;28;20229;-65
2021/05/10 02:15:22;;;;;;;2.43;1.20;;;;;;;;;;5086174;28;20225;-65
2021/05/10 02:17:49;;;;;;;2.73;0.87;;;;;;;;;;5099928;28;20205;-65
2021/05/10 02:20:17;;;;;;;1.83;0.90;;;;;;;;;;5099070;28;20212;-65
2021/05/10 02:22:54;;;;;;;2.33;0.83;;;;;;;;;;5098469;28;20263;-65
2021/05/10 02:25:25;;;;;;;4.07;1.27;;;;;;;;;;5099412;28;20260;-65
2021/05/10 02:27:52;;;;;;;1.80;0.80;;;;;;;;;;5085231;28;20285;-65
2021/05/10 02:30:21;;;;;;;3.07;2.37;;;;;;;;;;5099184;28;20235;-65
2021/05/10 02:32:49;;;;;;;2.57;1.20;;;;;;;;;;5085227;28;20202;-66
2021/05/10 02:35:17;;;;;;;2.37;1.10;;;;;;;;;;5096577;28;20556;-66
2021/05/10 02:37:44;;;;;;;1.47;0.97;;;;;;;;;;5098430;28;20280;-65
2021/05/10 02:40:12;;;;;;;2.23;0.80;;;;;;;;;;5099088;28;20233;-66
2021/05/10 02:42:39;;;;;;;2.87;1.10;;;;;;;;;;5090760;28;20233;-66
2021/05/10 02:45:07;;;;;;;1.77;0.87;;;;;;;;;;5087230;28;20734;-66
2021/05/10 02:47:34;;;;;;;1.43;1.07;;;;;;;;;;5099014;28;20232;-66
2021/05/10 02:50:03;;;;;;;1.60;1.00;;;;;;;;;;5098306;28;20236;-66
2021/05/10 02:52:29;;;;;;;2.20;1.30;;;;;;;;;;5098693;28;20681;-66
2021/05/10 02:54:58;;;;;;;2.10;0.90;;;;;;;;;;5088397;28;20222;-66
2021/05/10 02:57:25;;;;;;;2.20;1.00;;;;;;;;;;5092195;28;20270;-66
2021/05/10 02:59:52;;;;;;;1.63;1.03;;;;;;;;;;5087478;28;20272;-66
2021/05/10 03:02:20;;;;;;;1.13;0.97;;;;;;;;;;5097477;28;20677;-66
2021/05/10 03:04:47;;;;;;;1.73;1.07;;;;;;;;;;5093718;28;20221;-66
2021/05/10 03:07:15;;;;;;;5.03;1.27;;;;;;;;;;5098439;28;20786;-66
2021/05/10 03:09:43;;;;;;;2.50;1.03;;;;;;;;;;5097717;28;20293;-66
2021/05/10 03:12:10;;;;;;;3.27;0.90;;;;;;;;;;5089115;28;20262;-66
2021/05/10 03:14:37;;;;;;;3.70;1.20;;;;;;;;;;5094000;28;20233;-66
2021/05/10 03:17:04;;;;;;;1.47;0.90;;;;;;;;;;5089731;28;20569;-66
2021/05/10 03:19:31;;;;;;;1.97;1.00;;;;;;;;;;5092943;28;20209;-66
2021/05/10 03:21:58;;;;;;;3.23;0.70;;;;;;;;;;5084307;28;20225;-66
2021/05/10 03:24:26;;;;;;;1.83;1.13;;;;;;;;;;5098155;28;20654;-66
2021/05/10 03:26:53;;;;;;;1.50;1.07;;;;;;;;;;5091658;28;20301;-68
2021/05/10 03:29:19;;;;;;;2.90;1.30;;;;;;;;;;5092931;28;20716;-65
2021/05/10 03:31:46;;;;;;;4.40;1.00;;;;;;;;;;5092382;28;20194;-66
2021/05/10 03:34:14;;;;;;;2.50;0.97;;;;;;;;;;5083500;28;20201;-66
2021/05/10 03:36:40;;;;;;;2.27;0.90;;;;;;;;;;5098053;28;20637;-66
2021/05/10 03:39:07;;;;;;;1.87;0.73;;;;;;;;;;5089006;28;20285;-65
2021/05/10 03:41:35;;;;;;;1.63;1.40;;;;;;;;;;5092160;28;20269;-65
2021/05/10 03:44:03;;;;;;;2.37;1.07;;;;;;;;;;5098415;28;20216;-65
2021/05/10 03:46:30;;;;;;;0.90;0.90;;;;;;;;;;5093671;28;20822;-65
2021/05/10 03:48:57;;;;;;;2.70;0.87;;;;;;;;;;5092876;28;20202;-66
2021/05/10 03:51:24;;;;;;;3.47;1.20;;;;;;;;;;5094554;28;20216;-66
2021/05/10 03:53:51;;;;;;;2.50;1.07;;;;;;;;;;5095231;28;20749;-66
2021/05/10 03:56:18;;;;;;;3.33;1.00;;;;;;;;;;5083197;28;20305;-66
2021/05/10 03:58:46;;;;;;;5.93;1.33;;;;;;;;;;5092083;28;20727;-65
2021/05/10 04:01:13;;;;;;;2.97;1.27;;;;;;;;;;5093193;28;20238;-66
2021/05/10 04:03:44;;;;;;;2.17;1.30;;;;;;;;;;5093302;28;20286;-66
2021/05/10 04:06:24;;;;;;;3.50;1.10;;;;;;;;;;5097102;28;20308;-66
2021/05/10 04:14:21;;;;;;;1.63;0.93;;;;;;;;;;5095409;28;20343;-65
2021/05/10 04:16:48;;;;;;;1.67;1.20;;;;;;;;;;5095564;28;20258;-65
2021/05/10 04:19:15;;;;;;;6.00;0.90;;;;;;;;;;5094001;28;20251;-66
2021/05/10 04:21:43;;;;;;;2.43;1.27;;;;;;;;;;5096356;28;20253;-65
2021/05/10 04:24:10;;;;;;;1.13;1.00;;;;;;;;;;5082712;28;20233;-66
2021/05/10 04:26:37;;;;;;;3.20;1.17;;;;;;;;;;5087954;28;20264;-65
2021/05/10 04:29:04;;;;;;;1.57;0.90;;;;;;;;;;5091716;28;20574;-64
2021/05/10 04:31:32;;;;;;;1.87;1.17;;;;;;;;;;5100178;28;20289;-64
2021/05/10 04:33:59;;;;;;;3.47;1.10;;;;;;;;;;5100079;28;20289;-65
2021/05/10 04:36:26;;;;;;;3.77;1.10;;;;;;;;;;5101384;28;20292;-64
2021/05/10 04:38:53;;;;;;;4.20;1.20;;;;;;;;;;5100638;28;20297;-65
2021/05/10 04:41:20;;;;;;;1.43;0.90;;;;;;;;;;5100980;28;20671;-65
2021/05/10 04:43:47;;;;;;;1.90;1.10;;;;;;;;;;5089455;28;20676;-65
2021/05/10 04:46:14;;;;;;;1.40;1.10;;;;;;;;;;5095841;28;20224;-67
2021/05/10 04:48:42;;;;;;;2.30;0.90;;;;;;;;;;5100359;28;20205;-65
2021/05/10 04:51:09;;;;;;;1.27;1.00;;;;;;;;;;5100317;28;20236;-65
2021/05/10 04:53:36;;;;;;;2.50;1.00;;;;;;;;;;5101208;28;20695;-67
2021/05/10 04:56:03;;;;;;;3.33;0.87;;;;;;;;;;5095831;28;20799;-67
2021/05/10 04:58:30;;;;;;;1.37;1.00;;;;;;;;;;5097172;28;20229;-67
2021/05/10 05:00:58;;;;;;;2.33;1.30;;;;;;;;;;5100639;28;20206;-65
2021/05/10 05:03:25;;;;;;;3.37;1.10;;;;;;;;;;5094013;28;20210;-65
2021/05/10 05:05:53;;;;;;;3.53;1.10;;;;;;;;;;5100512;28;20360;-66
2021/05/10 05:08:20;;;;;;;1.93;1.47;;;;;;;;;;5098278;28;20194;-68
2021/05/10 05:10:47;;;;;;;1.87;1.20;;;;;;;;;;5100822;28;20281;-65
2021/05/10 05:13:24;;;;;;;4.37;1.50;;;;;;;;;;5097888;28;20234;-68
2021/05/10 05:15:51;;;;;;;3.73;1.50;;;;;;;;;;5100263;28;20219;-68
2021/05/10 05:18:18;;;;;;;3.73;1.00;;;;;;;;;;5099291;28;20266;-67
2021/05/10 05:20:45;;;;;;;3.63;1.20;;;;;;;;;;5099839;28;20197;-68
2021/05/10 05:23:23;;;;;;;1.20;1.03;;;;;;;;;;5098509;28;20201;-68
2021/05/10 05:25:54;;;;;;;2.57;1.30;;;;;;;;;;5098951;28;20225;-68
2021/05/10 05:28:21;;;;;;;3.87;2.27;;;;;;;;;;5098437;28;20228;-67
2021/05/10 05:30:49;;;;;;;3.07;1.37;;;;;;;;;;5097630;28;20210;-69
2021/05/10 05:33:16;;;;;;;3.13;1.20;;;;;;;;;;5097976;28;20225;-69
2021/05/10 05:35:43;;;;;;;1.97;1.00;;;;;;;;;;5098839;28;20249;-69
2021/05/10 05:38:10;;;;;;;3.53;1.23;;;;;;;;;;5096240;28;20198;-69
2021/05/10 05:40:39;;;;;;;6.80;1.40;;;;;;;;;;5091249;28;20638;-69
2021/05/10 05:43:07;;;;;;;6.33;1.30;;;;;;;;;;5098246;28;20212;-69
2021/05/10 05:45:35;;;;;;;4.17;1.27;;;;;;;;;;5092417;28;20244;-69
2021/05/10 05:48:03;;;;;;;3.23;1.13;;;;;;;;;;5095010;28;20243;-69
2021/05/10 05:50:30;;;;;;;4.50;1.20;;;;;;;;;;5085847;28;20210;-69
2021/05/10 05:52:57;;;;;;;2.37;1.23;;;;;;;;;;5099981;28;20249;-69
2021/05/10 05:55:24;;;;;;;4.47;1.40;;;;;;;;;;5099020;28;20222;-69
2021/05/10 05:57:52;;;;;;;6.17;1.50;;;;;;;;;;5093885;28;20266;-69
2021/05/10 06:00:20;;;;;;;3.90;1.23;;;;;;;;;;5103933;28;20251;-68
2021/05/10 06:02:47;;;;;;;4.97;1.23;;;;;;;;;;5107604;28;20197;-67
2021/05/10 06:05:14;;;;;;;3.13;1.27;;;;;;;;;;5104269;28;20595;-67
2021/05/10 06:07:46;;;;;;;2.50;1.50;;;;;;;;;;5105831;28;20206;-66
2021/05/10 06:10:14;;;;;;;2.27;1.50;;;;;;;;;;5107391;28;20664;-66
2021/05/10 06:12:44;;;;;;;2.10;1.30;;;;;;;;;;5100131;28;20198;-67
2021/05/10 06:15:12;;;;;;;4.13;1.37;;;;;;;;;;5086378;28;20226;-66
2021/05/10 06:17:40;;;;;;;1.63;1.30;;;;;;;;;;5087350;28;20236;-67
2021/05/10 06:20:08;;;;;;;3.13;1.43;;;;;;;;;;5085576;28;20296;-66
2021/05/10 06:22:36;;;;;;;3.13;1.50;;;;;;;;;;5086056;28;20285;-66
2021/05/10 06:25:03;;;;;;;3.60;1.40;;;;;;;;;;5085910;28;20222;-66
2021/05/10 06:27:30;;;;;;;2.23;1.37;;;;;;;;;;5084719;28;20281;-67
2021/05/10 06:29:58;;;;;;;4.53;1.33;;;;;;;;;;5084702;28;20864;-67
2021/05/10 06:32:26;;;;;;;1.53;1.40;;;;;;;;;;5086226;28;20233;-67
2021/05/10 06:34:57;;;;;;;2.43;1.50;;;;;;;;;;5086983;28;20298;-65
2021/05/10 06:37:28;;;;;;;8.87;2.57;;;;;;;;;;5087121;28;20194;-67
2021/05/10 06:39:55;;;;;;;4.60;1.40;;;;;;;;;;5082373;28;20684;-67
2021/05/10 06:42:23;;;;;;;3.23;1.60;;;;;;;;;;5086146;28;20226;-67
2021/05/10 06:44:50;;;;;;;3.90;1.53;;;;;;;;;;5085581;28;20221;-66
2021/05/10 06:47:17;;;;;;;3.40;1.30;;;;;;;;;;5087373;28;20253;-67
2021/05/10 06:49:45;;;;;;;3.50;1.77;;;;;;;;;;5086549;28;20281;-67
2021/05/10 06:52:12;;;;;;;6.27;1.37;;;;;;;;;;5095101;28;20265;-67
2021/05/10 06:54:39;;;;;;;6.60;1.07;;;;;;;;;;5098318;28;20235;-74
2021/05/10 06:57:06;;;;;;;10.10;1.70;;;;;;;;;;5094824;28;20728;-66
2021/05/10 06:59:33;;;;;;;2.73;1.20;;;;;;;;;;5086234;28;20286;-66
2021/05/10 07:02:01;;;;;;;9.03;2.40;;;;;;;;;;5087606;28;20284;-66
2021/05/10 07:04:28;;;;;;;6.63;1.93;;;;;;;;;;5087258;28;20278;-66
2021/05/10 07:06:56;;;;;;;7.23;1.70;;;;;;;;;;5094442;28;20316;-66
2021/05/10 07:09:23;;;;;;;4.63;1.40;;;;;;;;;;5098096;28;20268;-66
2021/05/10 07:11:50;;;;;;;3.33;1.30;;;;;;;;;;5097352;28;20205;-66
2021/05/10 07:14:17;;;;;;;3.93;1.57;;;;;;;;;;5098621;28;20209;-67
2021/05/10 07:16:44;;;;;;;3.37;1.43;;;;;;;;;;5098103;28;20204;-66
2021/05/10 07:19:11;;;;;;;3.63;1.40;;;;;;;;;;5098301;28;20246;-66
2021/05/10 07:21:38;;;;;;;5.00;1.37;;;;;;;;;;5097089;28;20201;-66
2021/05/10 07:24:07;;;;;;;2.90;1.27;;;;;;;;;;5098038;28;20240;-66
2021/05/10 07:26:34;;;;;;;2.40;1.40;;;;;;;;;;5088527;28;20305;-66
2021/05/10 07:29:01;;;;;;;3.00;1.03;;;;;;;;;;5091072;28;20269;-66
2021/05/10 07:31:28;;;;;;;3.93;0.97;;;;;;;;;;5097213;28;20653;-66
2021/05/10 07:33:55;;;;;;;3.77;1.30;;;;;;;;;;5095928;28;20209;-66
2021/05/10 07:36:22;;;;;;;2.07;0.90;;;;;;;;;;5085055;28;20697;-67
2021/05/10 07:38:49;;;;;;;2.80;1.30;;;;;;;;;;5086631;28;20610;-66
2021/05/10 07:41:17;;;;;;;2.30;1.07;;;;;;;;;;5092915;28;20495;-66
2021/05/10 07:43:44;;;;;;;1.93;1.10;;;;;;;;;;5093958;28;20205;-66
2021/05/10 07:46:11;;;;;;;2.53;1.20;;;;;;;;;;5097255;28;20316;-66
2021/05/10 07:48:38;;;;;;;4.37;1.37;;;;;;;;;;5097136;28;20202;-66
2021/05/10 07:51:05;;;;;;;5.67;1.13;;;;;;;;;;5096446;28;20316;-67
2021/05/10 07:53:32;;;;;;;2.47;1.40;;;;;;;;;;5092582;28;20284;-67
2021/05/10 07:56:00;;;;;;;1.70;1.30;;;;;;;;;;5085634;28;20299;-68
2021/05/10 07:58:28;;;;;;;5.07;1.67;;;;;;;;;;5083257;28;20262;-69
2021/05/10 08:00:57;;;;;;;3.60;1.87;;;;;;;;;;5086480;28;20259;-68
2021/05/10 08:03:27;;;;;;;3.13;1.67;;;;;;;;;;5084308;28;20265;-68
2021/05/10 08:05:54;;;;;;;2.87;1.60;;;;;;;;;;5088631;28;20229;-68
2021/05/10 08:08:22;;;;;;;3.33;1.60;;;;;;;;;;5090256;28;20234;-69
2021/05/10 08:10:49;;;;;;;2.30;1.50;;;;;;;;;;5090932;28;20592;-68
2021/05/10 08:13:17;;;;;;;2.27;1.10;;;;;;;;;;5095288;28;20677;-68
2021/05/10 08:15:45;;;;;;;4.40;1.90;;;;;;;;;;5097317;28;20235;-69
2021/05/10 08:18:12;;;;;;;5.20;1.30;;;;;;;;;;5083438;28;20316;-69
2021/05/10 08:20:39;;;;;;;3.07;1.23;;;;;;;;;;5097124;28;20244;-69
2021/05/10 08:23:06;;;;;;;3.60;1.40;;;;;;;;;;5095943;28;20656;-71
2021/05/10 08:25:33;;;;;;;1.33;1.23;;;;;;;;;;5094497;28;20266;-71
2021/05/10 08:28:00;;;;;;;3.00;1.33;;;;;;;;;;5084003;28;20285;-70
2021/05/10 08:30:28;;;;;;;1.90;0.90;;;;;;;;;;5084761;28;20201;-70
2021/05/10 08:32:57;;;;;;;2.03;0.63;;;;;;;;;;5082818;28;20205;-70
2021/05/10 08:35:24;;;;;;;1.20;0.90;;;;;;;;;;5087852;28;20257;-70
2021/05/10 08:37:58;;;;;;;3.20;0.97;;;;;;;;;;5084128;28;20680;-71
2021/05/10 08:40:25;;;;;;;1.60;0.80;;;;;;;;;;5085164;28;20281;-72
2021/05/10 08:42:52;;;;;;;1.83;0.80;;;;;;;;;;5093206;28;20201;-71
2021/05/10 08:45:20;;;;;;;2.43;1.17;;;;;;;;;;5097154;28;20269;-72
2021/05/10 08:47:48;;;;;;;2.57;1.23;;;;;;;;;;5095912;28;20224;-72
2021/05/10 08:50:16;;;;;;;2.23;1.20;;;;;;;;;;5079004;28;20209;-71
2021/05/10 08:52:44;;;;;;;2.27;0.90;;;;;;;;;;5096229;28;20205;-71
2021/05/10 08:55:15;;;;;;;1.93;0.70;;;;;;;;;;5085041;28;20334;-73
2021/05/10 08:57:42;;;;;;;1.27;0.70;;;;;;;;;;5097094;28;20641;-73
2021/05/10 09:00:14;;;;;;;2.97;1.20;;;;;;;;;;5100768;28;20201;-74
2021/05/10 09:02:41;;;;;;;1.57;1.00;;;;;;;;;;5094629;28;20194;-74
2021/05/10 09:05:18;;;;;;;2.03;0.70;;;;;;;;;;5095555;28;20225;-74
2021/05/10 09:07:45;;;;;;;1.63;0.83;;;;;;;;;;5099005;28;20286;-75
2021/05/10 09:10:14;;;;;;;1.57;0.77;;;;;;;;;;5099539;28;20291;-73
2021/05/10 09:12:42;;;;;;;3.03;0.90;;;;;;;;;;5100651;28;20206;-74
2021/05/10 09:15:16;;;;;;;1.93;0.87;;;;;;;;;;5099476;28;20253;-74
2021/05/10 09:17:46;;;;;;;3.10;1.80;;;;;;;;;;5098675;28;20624;-75
2021/05/10 09:20:14;;;;;;;3.27;2.40;;;;;;;;;;5086759;28;20286;-73
2021/05/10 09:22:47;;;;;;;1.97;0.83;;;;;;;;;;5088404;28;20286;-76
2021/05/10 09:25:14;;;;;;;1.77;0.80;;;;;;;;;;5087176;28;20284;-77
2021/05/10 09:27:45;;;;;;;0.90;0.70;;;;;;;;;;5090515;28;20217;-76
2021/05/10 09:30:22;;;;;;;0.53;0.53;;;;;;;;;;5099121;28;20233;-76
2021/05/10 09:32:50;;;;;;;1.83;0.70;;;;;;;;;;5099244;28;20225;-76
2021/05/10 09:35:22;;;;;;;3.07;0.80;;;;;;;;;;5090686;28;20221;-77
2021/05/10 09:37:57;;;;;;;1.30;0.70;;;;;;;;;;5086457;28;20233;-78
2021/05/10 09:40:27;;;;;;;0.93;0.67;;;;;;;;;;5088143;28;20225;-77
2021/05/10 09:43:06;;;;;;;2.83;1.10;;;;;;;;;;5090956;28;20205;-77
2021/05/10 09:45:43;;;;;;;3.53;1.17;;;;;;;;;;5098602;28;20218;-76
2021/05/10 09:48:12;;;;;;;2.00;1.10;;;;;;;;;;5098415;28;20236;-76
2021/05/10 09:50:40;;;;;;;1.03;0.90;;;;;;;;;;5099592;28;20284;-77
2021/05/10 09:53:12;;;;;;;2.83;0.90;;;;;;;;;;5083089;28;20202;-77
2021/05/10 09:55:47;;;;;;;3.33;1.10;;;;;;;;;;5083302;28;20224;-77
2021/05/10 09:58:15;;;;;;;3.07;1.10;;;;;;;;;;5085780;28;20246;-77
2021/05/10 10:00:42;;;;;;;2.10;1.07;;;;;;;;;;5086550;28;20202;-76
2021/05/10 10:03:25;;;;;;;3.53;1.53;;;;;;;;;;5088901;28;20194;-75
2021/05/10 10:05:53;;;;;;;2.40;1.30;;;;;;;;;;5086203;28;20222;-77
2021/05/10 10:08:21;;;;;;;2.37;1.03;;;;;;;;;;5086905;28;20233;-76
2021/05/10 10:10:49;;;;;;;1.97;1.13;;;;;;;;;;5089275;28;20725;-75
2021/05/10 10:13:16;;;;;;;2.50;1.20;;;;;;;;;;5085045;28;20237;-76
2021/05/10 10:15:43;;;;;;;2.73;1.20;;;;;;;;;;5088179;28;20252;-74
2021/05/10 10:18:10;;;;;;;1.73;0.90;;;;;;;;;;5084973;28;20233;-75
2021/05/10 10:20:38;;;;;;;2.13;1.03;;;;;;;;;;5086443;28;20285;-75
2021/05/10 10:23:06;;;;;;;1.77;1.20;;;;;;;;;;5086159;28;20216;-75
2021/05/10 10:25:36;;;;;;;2.30;0.83;;;;;;;;;;5099458;28;20244;-75
2021/05/10 10:28:19;;;;;;;2.13;1.17;;;;;;;;;;5097114;28;20276;-73
2021/05/10 10:30:48;;;;;;;1.63;0.93;;;;;;;;;;5098537;28;20223;-73
2021/05/10 10:33:21;;;;;;;4.47;1.30;;;;;;;;;;5091346;28;20229;-73
2021/05/10 10:35:49;;;;;;;0.80;0.80;;;;;;;;;;5097073;28;20253;-75
2021/05/10 10:38:25;;;;;;;0.67;0.67;;;;;;;;;;5097355;28;20335;-73
2021/05/10 10:41:06;;;;;;;5.80;3.63;;;;;;;;;;5099024;28;20293;-70
2021/05/10 10:43:34;;;;;;;4.17;1.57;;;;;;;;;;5097768;28;20587;-71
2021/05/10 10:46:16;;;;;;;2.43;1.33;;;;;;;;;;5097187;28;20312;-73
2021/05/10 10:48:43;;;;;;;2.07;0.90;;;;;;;;;;5104863;28;20232;-74
2021/05/10 10:51:11;;;;;;;0.73;0.73;;;;;;;;;;5107369;28;20716;-73
2021/05/10 10:53:41;;;;;;;2.10;1.00;;;;;;;;;;5102995;28;20285;-76
2021/05/10 10:56:08;;;;;;;2.23;0.90;;;;;;;;;;5106300;28;20339;-74
2021/05/10 10:58:39;;;;;;;1.67;0.93;;;;;;;;;;5101602;27;20284;-77
2021/05/10 11:01:11;;;;;;;1.30;1.20;;;;;;;;;;5083997;28;20288;-75
2021/05/10 11:03:39;;;;;;;1.30;0.80;;;;;;;;;;5091717;28;20260;-73
2021/05/10 11:06:07;;;;;;;3.70;1.50;;;;;;;;;;5083215;28;20879;-71
2021/05/10 11:08:48;;;;;;;3.40;1.00;;;;;;;;;;5096476;28;20643;-75
2021/05/10 11:11:30;;;;;;;3.20;1.17;;;;;;;;;;5094943;28;20292;-76
2021/05/10 11:13:59;;;;;;;1.53;0.90;;;;;;;;;;5096604;28;20274;-73
2021/05/10 11:16:41;;;;;;;1.03;0.70;;;;;;;;;;5096709;28;20234;-74
2021/05/10 11:19:27;;;;;;;1.17;0.80;;;;;;;;;;5097518;28;20269;-74
2021/05/10 11:21:54;;;;;;;2.60;1.00;;;;;;;;;;5097959;28;21506;-71
2021/05/10 11:24:24;;;;;;;2.23;1.00;;;;;;;;;;5104995;28;20685;-72
2021/05/10 11:26:52;;;;;;;4.40;1.30;;;;;;;;;;5093731;28;20234;-73
2021/05/10 11:29:37;;;;;;;3.37;1.40;;;;;;;;;;5079447;28;20202;-72
2021/05/10 11:32:19;;;;;;;3.93;1.40;;;;;;;;;;5079969;28;20303;-74
2021/05/10 11:34:48;;;;;;;2.77;1.07;;;;;;;;;;5078056;28;20217;-73
2021/05/10 11:37:23;;;;;;;1.53;0.87;;;;;;;;;;5078289;28;20718;-73
2021/05/10 11:39:52;;;;;;;5.07;1.77;;;;;;;;;;5078889;28;20280;-73
2021/05/10 11:42:20;;;;;;;1.80;1.20;;;;;;;;;;5076567;28;20195;-73
2021/05/10 11:44:54;;;;;;;4.13;1.50;;;;;;;;;;5079256;28;20214;-73
2021/05/10 11:47:33;;;;;;;6.60;1.57;;;;;;;;;;5077750;28;20686;-73
2021/05/10 11:50:02;;;;;;;7.07;2.07;;;;;;;;;;5085312;28;20287;-73
2021/05/10 11:52:30;;;;;;;7.57;2.07;;;;;;;;;;5105406;28;20570;-74
2021/05/10 11:54:59;;;;;;;5.90;1.70;;;;;;;;;;5097577;28;20221;-74
2021/05/10 11:57:27;;;;;;;6.17;1.90;;;;;;;;;;5097066;28;20197;-71
2021/05/10 11:59:57;;;;;;;5.03;1.83;;;;;;;;;;5093246;28;20197;-74
2021/05/10 12:02:26;;;;;;;2.70;1.03;;;;;;;;;;5096348;28;20215;-75
2021/05/10 12:04:56;;;;;;;2.37;1.00;;;;;;;;;;5085804;28;20214;-75
2021/05/10 12:07:26;;;;;;;0.87;0.57;;;;;;;;;;5095704;28;20769;-74
2021/05/10 12:09:57;;;;;;;1.70;0.90;;;;;;;;;;5096171;28;20304;-75
2021/05/10 12:12:29;;;;;;;2.73;1.00;;;;;;;;;;5096383;28;20672;-75
2021/05/10 12:14:58;;;;;;;4.37;0.90;;;;;;;;;;5097237;28;20312;-75
2021/05/10 12:17:26;;;;;;;1.87;1.60;;;;;;;;;;5085496;28;20226;-75
2021/05/10 12:20:01;;;;;;;3.27;1.30;;;;;;;;;;5091854;28;20205;-75
2021/05/10 12:22:34;;;;;;;1.60;0.80;;;;;;;;;;5096441;28;20288;-75
2021/05/10 12:25:17;;;;;;;1.93;1.10;;;;;;;;;;5097186;28;20285;-75
2021/05/10 12:27:46;;;;;;;1.53;1.03;;;;;;;;;;5083861;28;20309;-75
2021/05/10 12:30:24;;;;;;;1.90;1.10;;;;;;;;;;5093526;28;20241;-75
2021/05/10 12:32:52;;;;;;;2.23;1.50;;;;;;;;;;5091525;28;20617;-74
2021/05/10 12:35:21;;;;;;;2.10;1.00;;;;;;;;;;5090694;28;20718;-75
2021/05/10 12:37:50;;;;;;;7.07;1.03;;;;;;;;;;5089047;28;20277;-74
2021/05/10 12:40:18;;;;;;;1.83;1.10;;;;;;;;;;5095073;28;20669;-74
2021/05/10 12:42:46;;;;;;;1.80;1.23;;;;;;;;;;5090398;28;20292;-75
2021/05/10 12:45:14;;;;;;;1.50;0.90;;;;;;;;;;5098648;28;20276;-74
2021/05/10 12:47:42;;;;;;;2.10;0.90;;;;;;;;;;5100902;28;20225;-73
2021/05/10 12:50:10;;;;;;;1.07;0.97;;;;;;;;;;5098772;28;20265;-74
2021/05/10 12:52:47;;;;;;;1.17;0.87;;;;;;;;;;5099700;28;20202;-74
2021/05/10 12:55:17;;;;;;;2.23;1.10;;;;;;;;;;5091306;28;20660;-74
2021/05/10 12:57:44;;;;;;;1.27;1.00;;;;;;;;;;5094784;28;20197;-74
2021/05/10 13:00:25;;;;;;;0.83;0.80;;;;;;;;;;5100813;28;20245;-75
2021/05/10 13:02:52;;;;;;;1.70;1.10;;;;;;;;;;5097635;28;20253;-76
2021/05/10 13:05:36;;;;;;;2.37;1.10;;;;;;;;;;5096788;28;20217;-74
2021/05/10 13:08:04;;;;;;;5.70;2.43;;;;;;;;;;5099789;28;20225;-75
2021/05/10 13:10:32;;;;;;;2.13;1.50;;;;;;;;;;5099830;28;20300;-75
2021/05/10 13:13:00;;;;;;;2.37;1.00;;;;;;;;;;5100987;28;20201;-74
2021/05/10 13:15:29;;;;;;;2.70;1.20;;;;;;;;;;5093697;28;20300;-76
2021/05/10 13:18:03;;;;;;;2.47;1.00;;;;;;;;;;5088256;28;20252;-75
2021/05/10 13:20:52;;;;;;;1.23;1.00;;;;;;;;;;5086109;28;20627;-75
2021/05/10 13:27:05;;;;;;;0.80;0.70;;;;;;;;;;5088055;28;20205;-74
2021/05/10 13:32:07;;;;;;;1.27;0.90;;;;;;;;;;5086429;28;20236;-74
2021/05/10 13:34:40;;;;;;;1.70;1.03;;;;;;;;;;5088858;28;20217;-76
2021/05/10 13:37:08;;;;;;;1.83;0.90;;;;;;;;;;5085021;28;20221;-75
2021/05/10 13:39:35;;;;;;;2.17;1.20;;;;;;;;;;5086182;28;20304;-75
2021/05/10 13:42:19;;;;;;;2.77;0.80;;;;;;;;;;5085037;28;20201;-74
2021/05/10 13:44:48;;;;;;;2.20;0.80;;;;;;;;;;5087510;28;20217;-75
2021/05/10 13:47:15;;;;;;;1.80;0.90;;;;;;;;;;5092329;28;20275;-76
2021/05/10 13:49:43;;;;;;;3.23;0.60;;;;;;;;;;5098048;28;20274;-75
2021/05/10 13:52:10;;;;;;;1.40;0.97;;;;;;;;;;5098432;28;20206;-75
2021/05/10 13:54:37;;;;;;;1.50;0.60;;;;;;;;;;5099059;28;20305;-75
2021/05/10 13:57:06;;;;;;;2.43;1.10;;;;;;;;;;5099486;28;20208;-76
2021/05/10 13:59:34;;;;;;;0.40;0.40;;;;;;;;;;5094207;28;22233;-75
2021/05/10 14:02:01;;;;;;;0.80;0.63;;;;;;;;;;5082892;28;20210;-77
2021/05/10 14:04:29;;;;;;;2.33;0.90;;;;;;;;;;5085236;28;20773;-76
2021/05/10 14:06:56;;;;;;;1.20;0.90;;;;;;;;;;5081561;28;20697;-77
2021/05/10 14:09:23;;;;;;;1.53;0.40;;;;;;;;;;5093401;28;20229;-77
2021/05/10 14:11:50;;;;;;;0.30;0.30;;;;;;;;;;5092274;28;20244;-77
2021/05/10 14:14:18;;;;;;;2.97;0.60;;;;;;;;;;5097804;28;20304;-77
2021/05/10 14:16:45;;;;;;;0.70;0.50;;;;;;;;;;5097795;28;20208;-76
2021/05/10 14:19:16;;;;;;;1.23;0.97;;;;;;;;;;5098592;28;20213;-78
2021/05/10 14:22:00;;;;;;;0.90;0.90;;;;;;;;;;5093085;28;20627;-77
2021/05/10 14:24:28;;;;;;;1.17;0.60;;;;;;;;;;5093372;28;20255;-78
2021/05/10 14:26:55;;;;;;;3.30;0.87;;;;;;;;;;5091669;28;20646;-77
2021/05/10 14:29:24;;;;;;;0.90;0.80;;;;;;;;;;5089406;28;20205;-76
2021/05/10 14:31:51;;;;;;;1.00;1.00;;;;;;;;;;5098386;28;20286;-76
2021/05/10 14:34:20;;;;;;;0.67;0.50;;;;;;;;;;5103949;28;20260;-76
2021/05/10 14:36:47;;;;;;;0.60;0.60;;;;;;;;;;5117758;28;20197;-75
2021/05/10 14:39:16;;;;;;;1.80;0.60;;;;;;;;;;5101279;28;20212;-77
2021/05/10 14:41:43;;;;;;;1.20;1.10;;;;;;;;;;5098601;28;20331;-76
2021/05/10 14:44:11;;;;;;;2.00;0.90;;;;;;;;;;5098589;28;20205;-75
2021/05/10 14:46:39;;;;;;;1.90;0.50;;;;;;;;;;5099707;28;20292;-77
2021/05/10 14:49:07;;;;;;;2.80;0.70;;;;;;;;;;5098797;28;20210;-75
2021/05/10 14:51:34;;;;;;;0.83;0.60;;;;;;;;;;5097436;28;20574;-76
2021/05/10 14:54:04;;;;;;;0.77;0.57;;;;;;;;;;5098793;28;20261;-76
2021/05/10 14:56:31;;;;;;;1.97;0.60;;;;;;;;;;5098442;28;20676;-76
2021/05/10 14:58:58;;;;;;;1.33;0.70;;;;;;;;;;5088743;28;20238;-77
2021/05/10 15:01:25;;;;;;;0.60;0.60;;;;;;;;;;5090651;28;20331;-77
2021/05/10 15:03:53;;;;;;;0.50;0.40;;;;;;;;;;5098258;28;20197;-79